createdAt,value
2017-10-25T00:01:27.454Z,60.95
2017-10-25T00:03:55.008Z,61.00
2017-10-25T00:06:22.531Z,60.73
2017-10-25T00:08:50.051Z,61.37
2017-10-25T00:11:17.626Z,61.53
2017-10-25T00:13:45.202Z,60.52
2017-10-25T00:16:12.744Z,60.75
2017-10-25T00:18:40.301Z,60.64
2017-10-25T00:21:07.819Z,60.27
2017-10-25T00:23:35.335Z,59.94
2017-10-25T00:26:02.881Z,60.60
2017-10-25T00:28:31.360Z,60.54
2017-10-25T00:30:58.919Z,60.43
2017-10-25T00:33:26.604Z,60.34
2017-10-25T00:35:54.137Z,61.07
2017-10-25T00:38:21.714Z,60.47
2017-10-25T00:40:49.439Z,60.61
2017-10-25T00:43:16.953Z,61.75
2017-10-25T00:45:44.818Z,61.69
2017-10-25T00:48:12.614Z,61.10
2017-10-25T00:50:40.143Z,61.25
2017-10-25T00:53:07.667Z,61.06
2017-10-25T00:55:35.421Z,60.54
2017-10-25T00:58:02.941Z,59.85
2017-10-25T01:00:30.476Z,60.04
2017-10-25T01:02:58.035Z,60.10
2017-10-25T01:05:25.556Z,60.14
2017-10-25T01:07:53.124Z,59.94
2017-10-25T01:10:20.888Z,60.37
2017-10-25T01:12:48.468Z,60.67
2017-10-25T01:15:16.010Z,61.26
2017-10-25T01:17:43.699Z,62.20
2017-10-25T01:20:12.148Z,62.25
2017-10-25T01:22:39.707Z,62.72
2017-10-25T01:25:07.272Z,62.53
2017-10-25T01:27:34.827Z,63.19
2017-10-25T01:30:02.386Z,63.25
2017-10-25T01:32:30.278Z,62.31
2017-10-25T01:34:57.821Z,63.11
2017-10-25T01:37:25.368Z,63.65
2017-10-25T01:39:53.120Z,63.05
2017-10-25T01:42:20.636Z,63.63
2017-10-25T01:44:48.160Z,64.16
2017-10-25T01:47:15.812Z,64.22
2017-10-25T01:49:43.374Z,64.50
2017-10-25T01:52:10.930Z,64.12
2017-10-25T01:54:38.486Z,63.54
2017-10-25T01:57:06.048Z,63.53
2017-10-25T01:59:33.562Z,64.25
2017-10-25T02:02:01.115Z,64.41
2017-10-25T02:04:28.636Z,64.62
2017-10-25T02:06:56.181Z,64.42
2017-10-25T02:09:23.744Z,64.04
2017-10-25T02:11:51.300Z,64.19
2017-10-25T02:14:18.861Z,64.41
2017-10-25T02:16:46.560Z,63.79
2017-10-25T02:19:14.071Z,64.50
2017-10-25T02:21:41.587Z,64.05
2017-10-25T02:24:09.143Z,65.38
2017-10-25T02:26:36.659Z,64.81
2017-10-25T02:29:04.213Z,64.50
2017-10-25T02:31:31.772Z,64.71
2017-10-25T02:33:59.326Z,64.16
2017-10-25T02:36:26.845Z,64.14
2017-10-25T02:38:54.635Z,64.89
2017-10-25T02:41:22.151Z,65.12
2017-10-25T02:43:49.668Z,65.05
2017-10-25T02:46:17.215Z,65.10
2017-10-25T02:48:44.731Z,65.46
2017-10-25T02:51:12.250Z,65.13
2017-10-25T02:53:40.091Z,64.52
2017-10-25T02:56:07.610Z,63.99
2017-10-25T02:58:35.230Z,64.93
2017-10-25T03:01:02.998Z,65.43
2017-10-25T03:03:30.514Z,65.13
2017-10-25T03:05:58.040Z,65.80
2017-10-25T03:08:25.603Z,66.06
2017-10-25T03:10:53.145Z,65.42
2017-10-25T03:13:20.663Z,65.16
2017-10-25T03:15:48.396Z,65.25
2017-10-25T03:18:15.910Z,65.79
2017-10-25T03:20:43.477Z,65.58
2017-10-25T03:23:11.232Z,65.48
2017-10-25T03:25:38.796Z,65.48
2017-10-25T03:28:06.348Z,65.28
2017-10-25T03:30:34.215Z,64.86
2017-10-25T03:33:01.728Z,65.60
2017-10-25T03:35:29.242Z,65.39
2017-10-25T03:37:56.993Z,65.25
2017-10-25T03:40:24.554Z,65.63
2017-10-25T03:42:52.073Z,66.00
2017-10-25T03:45:19.674Z,66.34
2017-10-25T03:47:48.153Z,66.56
2017-10-25T03:50:15.712Z,66.86
2017-10-25T03:52:43.579Z,65.91
2017-10-25T03:55:11.138Z,65.99
2017-10-25T03:57:38.698Z,66.21
2017-10-25T04:00:06.257Z,65.73
2017-10-25T04:02:33.817Z,66.37
2017-10-25T04:05:01.374Z,66.93
2017-10-25T04:07:28.931Z,66.54
2017-10-25T04:09:56.447Z,66.28
2017-10-25T04:12:23.971Z,66.46
2017-10-25T04:14:51.823Z,66.93
2017-10-25T04:17:19.374Z,67.73
2017-10-25T04:19:46.934Z,67.02
2017-10-25T04:22:14.697Z,67.40
2017-10-25T04:24:42.212Z,67.02
2017-10-25T04:27:09.732Z,66.61
2017-10-25T04:29:37.277Z,66.71
2017-10-25T04:32:04.831Z,67.31
2017-10-25T04:34:32.342Z,68.18
2017-10-25T04:36:59.950Z,68.20
2017-10-25T04:39:27.508Z,67.84
2017-10-25T04:41:55.074Z,67.83
2017-10-25T04:44:22.837Z,68.64
2017-10-25T04:46:50.402Z,68.75
2017-10-25T04:49:17.953Z,69.01
2017-10-25T04:51:45.609Z,68.17
2017-10-25T04:54:13.170Z,68.25
2017-10-25T04:56:40.971Z,68.97
2017-10-25T04:59:08.931Z,68.65
2017-10-25T05:01:36.462Z,67.65
2017-10-25T05:04:04.028Z,67.85
2017-10-25T05:06:31.606Z,68.13
2017-10-25T05:08:59.118Z,68.24
2017-10-25T05:11:26.634Z,66.96
2017-10-25T05:13:54.378Z,65.73
2017-10-25T05:16:21.929Z,65.42
2017-10-25T05:18:49.478Z,66.34
2017-10-25T05:21:17.224Z,65.62
2017-10-25T05:23:44.751Z,66.99
2017-10-25T05:26:12.291Z,67.54
2017-10-25T05:28:40.003Z,66.73
2017-10-25T05:31:07.536Z,66.63
2017-10-25T05:33:36.077Z,66.59
2017-10-25T05:36:03.652Z,67.27
2017-10-25T05:38:31.184Z,67.89
2017-10-25T05:40:58.710Z,67.29
2017-10-25T05:43:26.903Z,67.62
2017-10-25T05:45:54.493Z,67.97
2017-10-25T05:48:22.044Z,68.41
2017-10-25T05:50:49.775Z,68.52
2017-10-25T05:53:17.383Z,67.47
2017-10-25T05:55:44.930Z,67.47
2017-10-25T05:58:12.659Z,67.57
2017-10-25T06:00:40.236Z,67.29
2017-10-25T06:03:07.794Z,66.87
2017-10-25T06:05:35.559Z,66.37
2017-10-25T06:08:03.070Z,66.76
2017-10-25T06:10:30.676Z,66.40
2017-10-25T06:12:58.339Z,66.89
2017-10-25T06:15:25.855Z,66.30
2017-10-25T06:17:53.375Z,66.46
2017-10-25T06:20:21.015Z,66.48
2017-10-25T06:22:48.527Z,66.06
2017-10-25T06:25:16.060Z,65.52
2017-10-25T06:27:43.898Z,65.23
2017-10-25T06:30:11.422Z,66.47
2017-10-25T06:32:39.017Z,66.68
2017-10-25T06:35:06.574Z,66.27
2017-10-25T06:37:34.090Z,65.36
2017-10-25T06:40:01.620Z,65.99
2017-10-25T06:42:29.563Z,65.64
2017-10-25T06:44:57.121Z,66.04
2017-10-25T06:47:24.678Z,66.32
2017-10-25T06:49:52.379Z,66.90
2017-10-25T06:52:19.920Z,66.46
2017-10-25T06:54:47.456Z,66.73
2017-10-25T06:57:15.019Z,65.84
2017-10-25T06:59:42.539Z,65.26
2017-10-25T07:02:10.061Z,65.27
2017-10-25T07:04:37.783Z,65.38
2017-10-25T07:07:05.300Z,65.11
2017-10-25T07:09:32.825Z,65.21
2017-10-25T07:12:00.560Z,65.41
2017-10-25T07:14:28.134Z,65.24
2017-10-25T07:16:55.694Z,64.72
2017-10-25T07:19:23.257Z,63.64
2017-10-25T07:21:50.818Z,64.01
2017-10-25T07:24:18.372Z,64.68
2017-10-25T07:26:46.115Z,63.80
2017-10-25T07:29:13.631Z,64.27
2017-10-25T07:31:41.150Z,63.88
2017-10-25T07:34:08.800Z,62.97
2017-10-25T07:36:36.323Z,63.27
2017-10-25T07:39:03.879Z,63.22
2017-10-25T07:41:31.697Z,61.57
2017-10-25T07:43:59.210Z,61.37
2017-10-25T07:46:27.733Z,60.51
2017-10-25T07:48:55.379Z,60.34
2017-10-25T07:51:22.899Z,59.87
2017-10-25T07:53:50.431Z,59.42
2017-10-25T07:56:18.278Z,57.90
2017-10-25T07:58:45.795Z,59.47
2017-10-25T08:01:13.334Z,59.52
2017-10-25T08:03:41.043Z,57.83
2017-10-25T08:06:08.617Z,59.21
2017-10-25T08:08:36.186Z,58.75
2017-10-25T08:11:03.740Z,58.84
2017-10-25T08:13:31.264Z,57.23
2017-10-25T08:15:58.791Z,57.65
2017-10-25T08:18:26.807Z,56.86
2017-10-25T08:20:54.324Z,56.35
2017-10-25T08:23:21.854Z,57.34
2017-10-25T08:25:49.693Z,56.59
2017-10-25T08:28:17.262Z,55.94
2017-10-25T08:30:44.822Z,56.38
2017-10-25T08:33:12.688Z,55.85
2017-10-25T08:35:40.283Z,56.58
2017-10-25T08:38:07.804Z,56.31
2017-10-25T08:40:35.570Z,56.01
2017-10-25T08:43:03.129Z,54.92
2017-10-25T08:45:30.690Z,54.22
2017-10-25T08:47:58.335Z,55.84
2017-10-25T08:50:25.851Z,53.80
2017-10-25T08:52:53.379Z,54.50
2017-10-25T08:55:21.130Z,55.30
2017-10-25T08:57:48.690Z,55.53
2017-10-25T09:00:16.211Z,54.04
2017-10-25T09:02:43.753Z,54.04
2017-10-25T09:05:11.263Z,53.41
2017-10-25T09:07:38.775Z,52.21
2017-10-25T09:10:06.355Z,51.07
2017-10-25T09:12:33.872Z,51.36
2017-10-25T09:15:01.421Z,51.63
2017-10-25T09:17:29.162Z,49.91
2017-10-25T09:19:56.729Z,49.92
2017-10-25T09:22:24.279Z,48.70
2017-10-25T09:24:51.828Z,44.95
2017-10-25T09:27:19.350Z,40.96
2017-10-25T09:29:46.893Z,43.79
2017-10-25T09:32:14.619Z,43.78
2017-10-25T09:34:42.178Z,41.22
2017-10-25T09:37:09.690Z,39.13
2017-10-25T09:39:37.383Z,37.40
2017-10-25T09:42:04.971Z,35.78
2017-10-25T09:44:32.493Z,33.21
2017-10-25T09:47:00.280Z,33.98
2017-10-25T09:49:27.840Z,36.83
2017-10-25T09:51:55.399Z,40.40
2017-10-25T09:54:23.151Z,41.67
2017-10-25T09:56:50.664Z,43.55
2017-10-25T09:59:18.203Z,43.77
2017-10-25T10:01:46.045Z,43.00
2017-10-25T10:04:13.603Z,42.75
2017-10-25T10:06:41.122Z,40.74
2017-10-25T10:09:08.918Z,36.49
2017-10-25T10:11:36.505Z,33.01
2017-10-25T10:14:04.026Z,30.09
2017-10-25T10:16:31.912Z,29.11
2017-10-25T10:18:59.478Z,26.67
2017-10-25T10:21:27.033Z,26.13
2017-10-25T10:23:54.658Z,25.49
2017-10-25T10:26:22.198Z,24.07
2017-10-25T10:28:49.810Z,23.38
2017-10-25T10:31:17.380Z,21.79
2017-10-25T10:33:44.899Z,20.15
2017-10-25T10:36:12.431Z,18.40
2017-10-25T10:38:40.255Z,18.23
2017-10-25T10:41:07.810Z,18.79
2017-10-25T10:43:35.370Z,20.49
2017-10-25T10:46:03.131Z,17.32
2017-10-25T10:48:30.656Z,16.60
2017-10-25T10:50:58.190Z,16.05
2017-10-25T10:53:25.748Z,17.48
2017-10-25T10:55:53.288Z,20.85
2017-10-25T10:58:20.811Z,20.29
2017-10-25T11:00:48.593Z,22.44
2017-10-25T11:03:16.147Z,20.55
2017-10-25T11:05:43.708Z,22.40
2017-10-25T11:08:11.471Z,24.87
2017-10-25T11:10:39.002Z,26.83
2017-10-25T11:13:06.520Z,27.75
2017-10-25T11:15:34.230Z,28.34
2017-10-25T11:18:01.747Z,24.72
2017-10-25T11:20:29.271Z,21.37
2017-10-25T11:22:57.248Z,19.09
2017-10-25T11:25:24.796Z,19.17
2017-10-25T11:27:52.354Z,17.89
2017-10-25T11:30:19.915Z,17.31
2017-10-25T11:32:47.471Z,17.17
2017-10-25T11:35:14.995Z,16.40
2017-10-25T11:37:42.588Z,17.18
2017-10-25T11:40:10.107Z,17.40
2017-10-25T11:42:37.636Z,17.81
2017-10-25T11:45:05.562Z,18.24
2017-10-25T11:47:33.134Z,17.57
2017-10-25T11:50:00.693Z,15.85
2017-10-25T11:52:28.252Z,15.78
2017-10-25T11:54:55.798Z,15.86
2017-10-25T11:57:23.346Z,18.59
2017-10-25T11:59:51.116Z,17.56
2017-10-25T12:02:18.653Z,18.29
2017-10-25T12:04:46.178Z,18.53
2017-10-25T12:07:13.895Z,19.59
2017-10-25T12:09:41.423Z,17.21
2017-10-25T12:12:08.992Z,19.41
2017-10-25T12:14:36.868Z,22.59
2017-10-25T12:17:04.458Z,26.46
2017-10-25T12:19:32.022Z,29.26
2017-10-25T12:22:00.190Z,33.29
2017-10-25T12:24:27.749Z,34.01
2017-10-25T12:26:55.264Z,34.75
2017-10-25T12:29:23.069Z,36.61
2017-10-25T12:31:50.630Z,39.30
2017-10-25T12:34:18.315Z,39.48
2017-10-25T12:36:46.151Z,38.89
2017-10-25T12:39:13.672Z,39.00
2017-10-25T12:41:41.486Z,39.52
2017-10-25T12:44:10.168Z,39.00
2017-10-25T12:46:37.730Z,41.04
2017-10-25T12:49:05.292Z,39.98
2017-10-25T12:51:32.879Z,39.93
2017-10-25T12:54:00.428Z,39.49
2017-10-25T12:56:27.951Z,39.79
2017-10-25T12:58:55.713Z,39.57
2017-10-25T13:01:23.226Z,38.84
2017-10-25T13:03:50.747Z,38.81
2017-10-25T13:06:18.331Z,39.24
2017-10-25T13:08:45.865Z,38.84
2017-10-25T13:25:12.118Z,39.87
2017-10-25T13:27:39.641Z,39.73
2017-10-25T13:30:07.690Z,40.16
2017-10-25T13:32:35.323Z,40.95
2017-10-25T13:35:02.848Z,41.59
2017-10-25T13:37:30.388Z,41.57
2017-10-25T13:39:58.131Z,42.57
2017-10-25T13:42:25.646Z,42.43
2017-10-25T13:44:53.168Z,42.13
2017-10-25T13:47:21.046Z,41.82
2017-10-25T13:49:48.607Z,41.86
2017-10-25T13:52:16.157Z,42.79
2017-10-25T13:54:43.907Z,42.48
2017-10-25T13:57:11.443Z,42.74
2017-10-25T13:59:38.978Z,43.23
2017-10-25T14:02:06.680Z,42.99
2017-10-25T14:04:34.459Z,43.31
2017-10-25T14:07:01.996Z,42.83
2017-10-25T14:09:29.699Z,42.27
2017-10-25T14:11:57.340Z,42.95
2017-10-25T14:14:24.986Z,42.46
2017-10-25T14:16:52.561Z,41.95
2017-10-25T14:19:20.123Z,43.18
2017-10-25T14:21:47.680Z,43.93
2017-10-25T14:24:15.428Z,43.57
2017-10-25T14:26:54.907Z,44.13
2017-10-25T14:29:22.495Z,44.29
2017-10-25T14:31:50.102Z,44.36
2017-10-25T14:34:17.629Z,44.37
2017-10-25T14:36:45.200Z,44.98
2017-10-25T14:39:12.720Z,44.56
2017-10-25T14:41:40.256Z,45.03
2017-10-25T14:44:07.827Z,45.17
2017-10-25T14:46:35.354Z,46.03
2017-10-25T14:49:03.118Z,46.93
2017-10-25T14:51:30.668Z,46.53
2017-10-25T14:53:58.224Z,46.53
2017-10-25T14:56:25.899Z,46.57
2017-10-25T14:58:53.642Z,46.27
2017-10-25T15:01:21.164Z,46.55
2017-10-25T15:03:48.686Z,47.29
2017-10-25T15:06:16.442Z,46.95
2017-10-25T15:08:44.027Z,48.28
2017-10-25T15:11:11.663Z,47.87
2017-10-25T15:13:39.539Z,47.59
2017-10-25T15:16:07.395Z,48.51
2017-10-25T15:18:35.161Z,47.85
2017-10-25T15:21:02.848Z,47.90
2017-10-25T15:23:30.483Z,48.21
2017-10-25T15:25:58.000Z,48.39
2017-10-25T15:28:25.605Z,48.41
2017-10-25T15:30:53.160Z,49.59
2017-10-25T15:33:20.719Z,49.26
2017-10-25T15:35:48.482Z,49.00
2017-10-25T15:38:16.143Z,49.88
2017-10-25T15:40:43.908Z,49.16
2017-10-25T15:43:11.758Z,49.38
2017-10-25T15:45:39.435Z,49.01
2017-10-25T15:48:07.754Z,49.33
2017-10-25T15:50:35.459Z,49.88
2017-10-25T15:53:03.087Z,50.14
2017-10-25T15:55:30.623Z,50.82
2017-10-25T15:57:58.653Z,51.81
2017-10-25T16:00:26.223Z,53.26
2017-10-25T16:02:53.782Z,53.79
2017-10-25T16:05:21.359Z,54.61
2017-10-25T16:07:49.005Z,55.62
2017-10-25T16:10:16.695Z,55.87
2017-10-25T16:12:44.454Z,56.17
2017-10-25T16:15:12.090Z,56.83
2017-10-25T16:17:39.753Z,56.88
2017-10-25T16:20:07.652Z,57.37
2017-10-25T16:22:35.795Z,57.36
2017-10-25T16:25:03.576Z,58.70
2017-10-25T16:27:31.343Z,58.24
2017-10-25T16:29:59.084Z,59.00
2017-10-25T16:32:26.672Z,59.27
2017-10-25T16:34:54.405Z,59.00
2017-10-25T16:37:21.967Z,59.20
2017-10-25T16:39:50.445Z,59.23
2017-10-25T16:42:18.209Z,59.23
2017-10-25T16:44:45.852Z,59.72
2017-10-25T16:47:13.469Z,59.76
2017-10-25T16:49:41.312Z,59.95
2017-10-25T16:52:08.855Z,60.47
2017-10-25T16:54:36.372Z,59.99
2017-10-25T16:57:04.221Z,60.11
2017-10-25T16:59:31.761Z,60.11
2017-10-25T17:01:59.300Z,59.92
2017-10-25T17:04:27.028Z,60.17
2017-10-25T17:06:54.713Z,60.51
2017-10-25T17:09:22.443Z,60.36
2017-10-25T17:11:50.461Z,60.55
2017-10-25T17:14:18.304Z,60.81
2017-10-25T17:16:45.939Z,61.61
2017-10-25T17:19:13.838Z,61.88
2017-10-25T17:21:41.628Z,61.56
2017-10-25T17:24:09.290Z,62.17
2017-10-25T17:26:37.142Z,61.88
2017-10-25T17:29:04.804Z,61.56
2017-10-25T17:31:32.372Z,61.87
2017-10-25T17:34:00.435Z,62.44
2017-10-25T17:36:28.300Z,61.71
2017-10-25T17:38:56.073Z,62.17
2017-10-25T17:41:23.923Z,62.35
2017-10-25T17:43:51.797Z,62.29
2017-10-25T17:46:20.495Z,62.40
2017-10-25T17:48:48.414Z,62.99
2017-10-25T17:51:16.214Z,62.82
2017-10-25T17:53:43.876Z,63.53
2017-10-25T17:56:13.242Z,63.38
2017-10-25T17:58:41.372Z,63.65
2017-10-25T18:01:09.143Z,63.54
2017-10-25T18:03:37.082Z,63.16
2017-10-25T18:06:05.065Z,63.60
2017-10-25T18:08:33.046Z,64.43
2017-10-25T18:11:01.212Z,63.81
2017-10-25T18:13:29.060Z,64.01
2017-10-25T18:15:56.846Z,63.80
2017-10-25T18:18:24.910Z,64.21
2017-10-25T18:20:52.762Z,63.83
2017-10-25T18:23:21.037Z,63.66
2017-10-25T18:25:49.109Z,63.54
2017-10-25T18:28:16.974Z,64.57
2017-10-25T18:30:44.765Z,64.76
2017-10-25T18:33:14.038Z,64.50
2017-10-25T18:35:42.290Z,64.62
2017-10-25T18:38:10.383Z,65.31
2017-10-25T18:40:38.672Z,66.74
2017-10-25T18:43:06.631Z,66.11
2017-10-25T18:45:35.232Z,65.46
2017-10-25T18:48:03.311Z,65.45
2017-10-25T18:50:31.277Z,65.61
2017-10-25T18:52:59.084Z,65.93
2017-10-25T18:55:27.020Z,65.92
2017-10-25T18:57:55.897Z,66.07
2017-10-25T19:00:23.640Z,66.02
2017-10-25T19:02:51.515Z,65.99
2017-10-25T19:05:19.293Z,66.01
2017-10-25T19:07:47.149Z,65.91
2017-10-25T19:10:15.002Z,66.00
2017-10-25T19:12:42.893Z,65.95
2017-10-25T19:15:10.735Z,66.88
2017-10-25T19:17:40.030Z,67.04
2017-10-25T19:20:08.516Z,66.34
2017-10-25T19:22:36.402Z,66.02
2017-10-25T19:25:04.760Z,65.67
2017-10-25T19:27:32.544Z,65.27
2017-10-25T19:30:00.516Z,65.12
2017-10-25T19:32:28.688Z,64.97
2017-10-25T19:34:56.446Z,65.01
2017-10-25T19:37:24.297Z,64.96
2017-10-25T19:39:52.708Z,64.56
2017-10-25T19:42:20.725Z,64.61
2017-10-25T19:44:48.599Z,64.56
2017-10-25T19:47:16.685Z,64.46
2017-10-25T19:49:44.550Z,64.13
2017-10-25T19:52:12.767Z,64.01
2017-10-25T19:54:40.693Z,64.08
2017-10-25T19:57:09.021Z,64.46
2017-10-25T19:59:37.043Z,64.29
2017-10-25T20:02:05.129Z,64.09
2017-10-25T20:04:32.994Z,63.86
2017-10-25T20:07:01.569Z,63.64
2017-10-25T20:09:29.648Z,64.19
2017-10-25T20:11:57.498Z,64.29
2017-10-25T20:14:25.281Z,64.39
2017-10-25T20:16:53.345Z,64.06
2017-10-25T20:19:21.197Z,63.93
2017-10-25T20:21:48.894Z,63.64
2017-10-25T20:24:17.034Z,63.72
2017-10-25T20:26:45.514Z,63.80
2017-10-25T20:29:13.296Z,63.49
2017-10-25T20:31:42.184Z,63.34
2017-10-25T20:34:09.941Z,63.79
2017-10-25T20:36:38.325Z,64.19
2017-10-25T20:39:06.486Z,63.69
2017-10-25T20:41:34.360Z,63.73
2017-10-25T20:44:02.837Z,63.74
2017-10-25T20:46:30.816Z,63.80
2017-10-25T20:48:58.567Z,63.70
2017-10-25T20:51:26.332Z,63.48
2017-10-25T20:53:54.411Z,63.36
2017-10-25T20:56:22.169Z,63.53
2017-10-25T20:58:50.134Z,63.25
2017-10-25T21:01:18.305Z,63.39
2017-10-25T21:03:45.870Z,63.24
2017-10-25T21:06:13.629Z,63.35
2017-10-25T21:08:41.597Z,63.31
2017-10-25T21:11:09.156Z,63.25
2017-10-25T21:13:37.024Z,63.11
2017-10-25T21:16:04.877Z,63.27
2017-10-25T21:18:32.489Z,63.13
2017-10-25T21:21:00.109Z,62.97
2017-10-25T21:23:27.773Z,62.66
2017-10-25T21:25:55.390Z,62.71
2017-10-25T21:28:23.613Z,62.67
2017-10-25T21:30:51.376Z,62.56
2017-10-25T21:33:18.933Z,62.41
2017-10-25T21:35:46.593Z,62.53
2017-10-25T21:38:15.214Z,62.56
2017-10-25T21:40:42.836Z,62.36
2017-10-25T21:43:10.372Z,62.40
2017-10-25T21:45:38.167Z,62.35
2017-10-25T21:48:05.719Z,62.38
2017-10-25T21:50:33.300Z,62.87
2017-10-25T21:53:01.246Z,62.71
2017-10-25T21:55:28.806Z,62.80
2017-10-25T21:57:56.372Z,62.65
2017-10-25T22:00:24.333Z,62.63
2017-10-25T22:02:51.892Z,62.60
2017-10-25T22:05:19.420Z,62.81
2017-10-25T22:07:49.200Z,62.67
2017-10-25T22:10:18.153Z,62.47
2017-10-25T22:12:45.714Z,62.50
2017-10-25T22:15:13.304Z,62.52
2017-10-25T22:17:40.824Z,62.53
2017-10-25T22:20:08.366Z,62.48
2017-10-25T22:22:36.155Z,62.42
2017-10-25T22:25:03.727Z,62.19
2017-10-25T22:27:31.273Z,62.17
2017-10-25T22:29:59.015Z,62.23
2017-10-25T22:32:27.518Z,61.95
2017-10-25T22:34:55.086Z,61.95
2017-10-25T22:37:22.942Z,61.95
2017-10-25T22:39:50.501Z,61.92
2017-10-25T22:42:18.029Z,62.06
2017-10-25T22:44:45.730Z,62.23
2017-10-25T22:47:13.281Z,62.66
2017-10-25T22:49:40.842Z,62.36
2017-10-25T22:52:08.603Z,62.17
2017-10-25T22:54:36.124Z,61.95
2017-10-25T22:57:03.650Z,61.82
2017-10-25T22:59:31.383Z,62.03
2017-10-25T23:01:58.943Z,62.48
2017-10-25T23:04:26.502Z,62.65
2017-10-25T23:06:54.563Z,62.30
2017-10-25T23:09:22.094Z,62.51
2017-10-25T23:11:50.550Z,62.21
2017-10-25T23:14:18.136Z,62.36
2017-10-25T23:16:45.658Z,62.50
2017-10-25T23:19:13.188Z,62.90
2017-10-25T23:21:41.263Z,62.71
2017-10-25T23:24:08.845Z,62.82
2017-10-25T23:26:36.455Z,63.08
2017-10-25T23:29:04.031Z,63.02
2017-10-25T23:31:31.603Z,62.72
2017-10-25T23:33:59.158Z,63.06
2017-10-25T23:36:26.920Z,63.74
2017-10-25T23:38:54.481Z,63.05
2017-10-25T23:41:22.006Z,62.98
2017-10-25T23:43:49.906Z,62.79
2017-10-25T23:46:17.465Z,62.83
2017-10-25T23:48:45.024Z,63.02
2017-10-25T23:51:12.787Z,63.56
2017-10-25T23:53:40.349Z,64.11
2017-10-25T23:56:07.880Z,63.96
2017-10-25T23:58:35.465Z,63.98
